createdAt,value
2022-10-18T00:00:07.810Z,57.76
2022-10-18T00:02:55.777Z,57.50
2022-10-18T00:05:41.751Z,57.26
2022-10-18T00:08:27.483Z,56.17
2022-10-18T00:11:13.361Z,56.90
2022-10-18T00:13:59.294Z,57.25
2022-10-18T00:16:45.014Z,57.31
2022-10-18T00:19:30.826Z,58.48
2022-10-18T00:22:16.728Z,57.33
2022-10-18T00:25:02.550Z,56.31
2022-10-18T00:27:48.576Z,55.77
2022-10-18T00:30:34.489Z,54.66
2022-10-18T00:33:20.314Z,56.00
2022-10-18T00:36:06.283Z,55.24
2022-10-18T00:38:52.114Z,55.29
2022-10-18T00:41:38.096Z,54.72
2022-10-18T00:44:23.887Z,55.96
2022-10-18T00:47:09.713Z,55.25
2022-10-18T00:49:55.653Z,55.76
2022-10-18T00:52:41.427Z,57.22
2022-10-18T00:55:29.212Z,56.73
2022-10-18T00:58:15.213Z,57.18
2022-10-18T01:01:00.945Z,57.78
2022-10-18T01:03:48.872Z,56.80
2022-10-18T01:06:34.797Z,56.75
2022-10-18T01:09:20.633Z,56.47
2022-10-18T01:12:06.491Z,56.39
2022-10-18T01:14:52.398Z,57.33
2022-10-18T01:17:38.318Z,57.12
2022-10-18T01:20:24.230Z,58.04
2022-10-18T01:23:10.037Z,56.88
2022-10-18T01:25:55.803Z,58.07
2022-10-18T01:28:41.748Z,59.44
2022-10-18T01:31:27.632Z,60.01
2022-10-18T01:34:13.563Z,57.49
2022-10-18T01:36:59.253Z,58.16
2022-10-18T01:39:45.112Z,57.45
2022-10-18T01:42:33.003Z,57.67
2022-10-18T01:45:18.813Z,58.72
2022-10-18T01:48:04.683Z,59.67
2022-10-18T01:50:50.501Z,60.72
2022-10-18T01:53:36.223Z,60.85
2022-10-18T01:56:22.132Z,61.20
2022-10-18T01:59:08.022Z,62.38
2022-10-18T02:01:53.816Z,61.28
2022-10-18T02:04:39.613Z,62.17
2022-10-18T02:07:25.445Z,63.80
2022-10-18T02:10:11.321Z,64.07
2022-10-18T02:12:57.436Z,62.99
2022-10-18T02:15:43.294Z,64.45
2022-10-18T02:18:29.162Z,63.95
2022-10-18T02:21:15.047Z,64.33
2022-10-18T02:24:00.841Z,64.69
2022-10-18T02:26:46.713Z,65.51
2022-10-18T02:29:32.396Z,64.25
2022-10-18T02:32:18.207Z,64.19
2022-10-18T02:35:04.062Z,63.88
2022-10-18T02:37:49.797Z,64.03
2022-10-18T02:40:35.667Z,64.13
2022-10-18T02:43:21.447Z,63.75
2022-10-18T02:46:07.291Z,62.46
2022-10-18T02:48:53.287Z,63.02
2022-10-18T02:51:38.909Z,62.44
2022-10-18T02:54:24.917Z,61.42
2022-10-18T02:57:10.657Z,61.56
2022-10-18T02:59:56.436Z,60.46
2022-10-18T03:02:42.236Z,59.95
2022-10-18T03:05:28.053Z,59.52
2022-10-18T03:08:14.007Z,59.04
2022-10-18T03:11:00.381Z,60.67
2022-10-18T03:13:46.218Z,59.98
2022-10-18T03:16:32.210Z,60.81
2022-10-18T03:19:18.016Z,60.06
2022-10-18T03:22:04.195Z,61.65
2022-10-18T03:24:50.388Z,63.08
2022-10-18T03:27:36.203Z,63.92
2022-10-18T03:30:22.246Z,62.90
2022-10-18T03:33:08.159Z,61.76
2022-10-18T03:35:54.049Z,61.89
2022-10-18T03:38:40.029Z,60.85
2022-10-18T03:41:25.812Z,61.14
2022-10-18T03:44:13.661Z,60.88
2022-10-18T03:46:59.463Z,61.47
2022-10-18T03:49:45.153Z,61.34
2022-10-18T03:52:31.438Z,61.06
2022-10-18T03:55:17.511Z,62.18
2022-10-18T03:58:03.312Z,61.78
2022-10-18T04:00:51.145Z,62.77
2022-10-18T04:03:37.115Z,60.43
2022-10-18T04:06:24.882Z,60.56
2022-10-18T04:09:10.787Z,59.81
2022-10-18T04:11:56.724Z,58.22
2022-10-18T04:14:42.515Z,57.55
2022-10-18T04:17:28.359Z,56.12
2022-10-18T04:20:14.149Z,55.60
2022-10-18T04:23:00.092Z,54.93
2022-10-18T04:25:46.055Z,55.45
2022-10-18T04:28:31.834Z,54.54
2022-10-18T04:31:17.816Z,55.38
2022-10-18T04:34:03.631Z,56.65
2022-10-18T04:36:49.504Z,56.53
2022-10-18T04:39:35.439Z,56.62
2022-10-18T04:42:21.195Z,56.87
2022-10-18T04:45:07.098Z,57.30
2022-10-18T04:47:53.091Z,57.87
2022-10-18T04:50:38.913Z,58.38
2022-10-18T04:53:24.749Z,57.87
2022-10-18T04:56:10.560Z,57.25
2022-10-18T04:58:56.308Z,57.86
2022-10-18T05:01:42.356Z,58.24
2022-10-18T05:04:28.530Z,60.02
2022-10-18T05:07:14.360Z,60.09
2022-10-18T05:10:00.237Z,60.75
2022-10-18T05:12:46.215Z,61.05
2022-10-18T05:15:32.188Z,63.35
2022-10-18T05:18:18.142Z,61.96
2022-10-18T05:21:03.941Z,62.31
2022-10-18T05:23:49.764Z,61.95
2022-10-18T05:26:35.461Z,62.89
2022-10-18T05:29:21.341Z,61.82
2022-10-18T05:32:07.575Z,62.41
2022-10-18T05:34:53.404Z,63.21
2022-10-18T05:37:39.371Z,63.81
2022-10-18T05:40:25.132Z,64.51
2022-10-18T05:43:10.975Z,65.60
2022-10-18T05:45:56.839Z,64.25
2022-10-18T05:48:42.646Z,64.81
2022-10-18T05:51:28.377Z,65.24
2022-10-18T05:54:14.178Z,65.18
2022-10-18T05:57:00.084Z,64.24
2022-10-18T05:59:46.035Z,64.08
2022-10-18T06:02:31.897Z,63.71
2022-10-18T06:05:18.045Z,62.82
2022-10-18T06:08:06.527Z,63.21
2022-10-18T06:10:56.230Z,62.21
2022-10-18T06:13:42.225Z,61.11
2022-10-18T06:16:32.270Z,60.03
2022-10-18T06:19:18.937Z,59.57
2022-10-18T06:22:04.677Z,58.83
2022-10-18T06:24:55.063Z,58.68
2022-10-18T06:27:43.295Z,58.44
2022-10-18T06:30:29.251Z,57.09
2022-10-18T06:33:15.077Z,56.89
2022-10-18T06:36:00.987Z,56.72
2022-10-18T06:38:46.745Z,56.64
2022-10-18T06:41:32.527Z,57.43
2022-10-18T06:44:18.380Z,56.73
2022-10-18T06:47:04.089Z,56.41
2022-10-18T06:49:50.070Z,58.97
2022-10-18T06:52:37.933Z,59.98
2022-10-18T06:55:23.594Z,59.75
2022-10-18T06:58:09.414Z,60.51
2022-10-18T07:00:55.200Z,61.87
2022-10-18T07:03:41.013Z,61.57
2022-10-18T07:06:26.967Z,61.61
2022-10-18T07:09:14.769Z,62.22
2022-10-18T07:12:00.588Z,61.63
2022-10-18T07:14:46.412Z,61.14
2022-10-18T07:17:32.360Z,60.35
2022-10-18T07:20:18.654Z,61.76
2022-10-18T07:23:04.456Z,61.25
2022-10-18T07:25:50.218Z,60.41
2022-10-18T07:28:36.101Z,59.36
2022-10-18T07:31:21.888Z,60.45
2022-10-18T07:34:07.745Z,59.70
2022-10-18T07:36:53.765Z,60.19
2022-10-18T07:39:39.600Z,60.63
2022-10-18T07:42:25.325Z,62.09
2022-10-18T07:45:11.065Z,61.01
2022-10-18T07:47:56.864Z,62.99
2022-10-18T07:50:42.725Z,62.82
2022-10-18T07:53:28.435Z,65.91
2022-10-18T07:56:14.289Z,64.53
2022-10-18T07:59:00.132Z,63.67
2022-10-18T08:01:45.953Z,63.13
2022-10-18T08:04:31.836Z,63.15
2022-10-18T08:07:17.701Z,63.76
2022-10-18T08:10:03.639Z,62.66
2022-10-18T08:12:49.660Z,62.95
2022-10-18T08:15:35.339Z,61.92
2022-10-18T08:18:21.272Z,60.59
2022-10-18T08:21:07.258Z,59.90
2022-10-18T08:23:53.070Z,60.88
2022-10-18T08:26:38.923Z,60.69
2022-10-18T08:29:27.947Z,61.80
2022-10-18T08:32:15.513Z,59.98
2022-10-18T08:35:03.247Z,61.19
2022-10-18T08:37:51.589Z,61.61
2022-10-18T08:40:37.418Z,61.97
2022-10-18T08:43:23.421Z,60.30
2022-10-18T08:46:09.400Z,61.02
2022-10-18T08:48:55.301Z,59.14
2022-10-18T08:51:41.015Z,60.30
2022-10-18T08:54:27.641Z,60.14
2022-10-18T08:57:13.514Z,59.86
2022-10-18T08:59:59.456Z,57.44
2022-10-18T09:02:45.243Z,55.11
2022-10-18T09:05:31.087Z,54.79
2022-10-18T09:08:16.921Z,53.14
2022-10-18T09:11:02.801Z,52.25
2022-10-18T09:13:48.564Z,51.13
2022-10-18T09:16:34.341Z,50.09
2022-10-18T09:19:20.148Z,48.83
2022-10-18T09:22:07.471Z,47.15
2022-10-18T09:24:55.507Z,47.55
2022-10-18T09:27:41.268Z,45.47
2022-10-18T09:30:27.172Z,45.21
2022-10-18T09:33:12.974Z,43.79
2022-10-18T09:35:59.095Z,44.01
2022-10-18T09:38:46.952Z,43.90
2022-10-18T09:41:32.901Z,43.11
2022-10-18T09:44:18.763Z,42.60
2022-10-18T09:47:04.949Z,42.60
2022-10-18T09:49:50.819Z,42.49
2022-10-18T09:52:36.789Z,41.24
2022-10-18T09:55:22.710Z,41.65
2022-10-18T09:58:08.559Z,42.26
2022-10-18T10:00:54.533Z,41.23
2022-10-18T10:03:40.322Z,40.87
2022-10-18T10:06:26.142Z,40.99
2022-10-18T10:09:12.198Z,42.21
2022-10-18T10:11:58.084Z,40.86
2022-10-18T10:14:43.939Z,40.86
2022-10-18T10:17:30.264Z,41.55
2022-10-18T10:20:16.744Z,41.29
2022-10-18T10:23:02.569Z,40.32
2022-10-18T10:25:48.406Z,40.28
2022-10-18T10:28:34.537Z,42.09
2022-10-18T10:31:20.503Z,41.83
2022-10-18T10:34:06.330Z,42.25
2022-10-18T10:36:52.184Z,39.81
2022-10-18T10:39:38.072Z,39.75
2022-10-18T10:42:23.943Z,40.48
2022-10-18T10:45:09.877Z,40.95
2022-10-18T10:47:55.619Z,41.16
2022-10-18T10:50:41.576Z,40.03
2022-10-18T10:53:27.669Z,38.84
2022-10-18T10:56:16.108Z,38.74
2022-10-18T10:59:02.323Z,38.95
2022-10-18T11:01:48.327Z,39.90
2022-10-18T11:04:34.101Z,37.75
2022-10-18T11:07:20.007Z,38.98
2022-10-18T11:10:05.781Z,42.59
2022-10-18T11:12:51.673Z,36.67
2022-10-18T11:15:37.517Z,37.23
2022-10-18T11:18:25.407Z,38.16
2022-10-18T11:21:11.340Z,40.96
2022-10-18T11:23:57.276Z,35.36
2022-10-18T11:26:45.522Z,38.92
2022-10-18T11:29:34.882Z,35.84
2022-10-18T11:32:20.852Z,36.68
2022-10-18T11:35:06.760Z,35.71
2022-10-18T11:37:52.662Z,35.60
2022-10-18T11:40:38.733Z,36.58
2022-10-18T11:43:30.093Z,36.55
2022-10-18T11:46:20.579Z,32.65
2022-10-18T11:49:06.376Z,35.09
2022-10-18T11:52:07.182Z,33.44
2022-10-18T11:54:53.938Z,34.55
2022-10-18T11:57:39.827Z,35.09
2022-10-18T12:03:16.587Z,34.16
2022-10-18T12:06:02.400Z,37.46
2022-10-18T12:08:48.250Z,35.84
2022-10-18T12:11:34.062Z,34.55
2022-10-18T12:14:19.861Z,34.84
2022-10-18T12:17:39.619Z,36.66
2022-10-18T12:20:12.233Z,34.88
2022-10-18T12:22:58.030Z,35.57
2022-10-18T12:25:43.889Z,36.24
2022-10-18T12:28:29.820Z,33.51
2022-10-18T12:31:15.802Z,36.90
2022-10-18T12:34:01.724Z,34.44
2022-10-18T12:36:47.549Z,31.25
2022-10-18T12:39:43.470Z,33.63
2022-10-18T12:42:36.460Z,33.56
2022-10-18T12:45:22.372Z,30.40
2022-10-18T12:48:08.287Z,30.39
2022-10-18T12:50:54.266Z,31.05
2022-10-18T12:53:40.048Z,34.44
2022-10-18T12:56:25.858Z,34.53
2022-10-18T12:59:11.620Z,32.65
2022-10-18T13:01:57.554Z,31.68
2022-10-18T13:04:43.481Z,33.60
2022-10-18T13:07:29.378Z,36.00
2022-10-18T13:10:15.657Z,31.62
2022-10-18T13:13:12.188Z,34.37
2022-10-18T13:16:04.919Z,31.55
2022-10-18T13:18:50.874Z,36.29
2022-10-18T13:21:36.696Z,31.88
2022-10-18T13:24:22.479Z,35.48
2022-10-18T13:30:14.531Z,34.39
2022-10-18T13:33:00.327Z,35.09
2022-10-18T13:35:46.215Z,35.57
2022-10-18T13:38:31.960Z,35.11
2022-10-18T13:41:17.923Z,32.08
2022-10-18T13:44:03.975Z,31.53
2022-10-18T13:46:49.825Z,31.61
2022-10-18T13:49:35.682Z,32.77
2022-10-18T13:52:21.330Z,33.66
2022-10-18T13:55:07.741Z,30.05
2022-10-18T13:57:53.600Z,31.20
2022-10-18T14:00:44.845Z,31.21
2022-10-18T14:06:41.248Z,35.22
2022-10-18T14:12:33.596Z,34.47
2022-10-18T14:15:19.883Z,34.13
2022-10-18T14:18:05.735Z,34.35
2022-10-18T14:21:12.247Z,33.66
2022-10-18T14:23:57.585Z,32.05
2022-10-18T14:26:43.304Z,30.53
2022-10-18T14:29:29.377Z,30.40
2022-10-18T14:32:15.379Z,32.11
2022-10-18T14:35:30.673Z,32.47
2022-10-18T14:38:07.108Z,32.53
2022-10-18T14:40:53.231Z,28.07
2022-10-18T14:43:39.389Z,31.64
2022-10-18T14:46:25.156Z,32.10
2022-10-18T14:49:10.981Z,32.73
2022-10-18T14:51:56.879Z,31.83
2022-10-18T14:54:42.732Z,32.67
2022-10-18T14:57:28.704Z,32.09
2022-10-18T15:00:14.601Z,31.37
2022-10-18T15:03:00.422Z,32.19
2022-10-18T15:05:46.160Z,32.27
2022-10-18T15:08:32.097Z,32.22
2022-10-18T15:11:18.108Z,31.98
2022-10-18T15:14:03.948Z,32.23
2022-10-18T15:16:49.930Z,33.07
2022-10-18T15:19:35.887Z,33.03
2022-10-18T15:22:32.175Z,33.70
2022-10-18T15:25:18.715Z,34.00
2022-10-18T15:28:04.557Z,33.76
2022-10-18T15:30:50.521Z,33.81
2022-10-18T15:33:36.277Z,33.84
2022-10-18T15:36:22.245Z,33.96
2022-10-18T15:39:08.283Z,33.74
2022-10-18T15:41:54.137Z,34.34
2022-10-18T15:44:39.994Z,34.15
2022-10-18T15:47:25.840Z,34.49
2022-10-18T15:50:11.615Z,34.63
2022-10-18T15:52:57.493Z,34.64
2022-10-18T15:55:43.341Z,34.54
2022-10-18T15:58:29.328Z,34.71
2022-10-18T16:01:15.230Z,34.38
2022-10-18T16:04:01.243Z,34.48
2022-10-18T16:06:47.159Z,34.59
2022-10-18T16:09:32.890Z,34.76
2022-10-18T16:12:18.717Z,34.93
2022-10-18T16:15:04.595Z,34.50
2022-10-18T16:17:50.300Z,34.81
2022-10-18T16:20:36.347Z,34.85
2022-10-18T16:23:22.070Z,34.85
2022-10-18T16:26:07.895Z,34.70
2022-10-18T16:28:53.825Z,34.62
2022-10-18T16:31:39.709Z,34.54
2022-10-18T16:34:25.623Z,34.86
2022-10-18T16:37:11.649Z,35.11
2022-10-18T16:39:57.591Z,35.10
2022-10-18T16:42:43.688Z,35.22
2022-10-18T16:45:29.790Z,35.22
2022-10-18T16:48:15.656Z,35.77
2022-10-18T16:51:01.445Z,36.07
2022-10-18T16:53:47.383Z,36.42
2022-10-18T16:56:33.254Z,36.60
2022-10-18T16:59:18.915Z,36.92
2022-10-18T17:02:04.851Z,37.28
2022-10-18T17:04:51.121Z,37.54
2022-10-18T17:07:36.906Z,37.03
2022-10-18T17:10:22.826Z,37.96
2022-10-18T17:13:08.807Z,38.38
2022-10-18T17:15:54.780Z,38.45
2022-10-18T17:18:42.569Z,39.10
2022-10-18T17:21:28.580Z,39.81
2022-10-18T17:24:14.395Z,40.56
2022-10-18T17:27:00.132Z,41.07
2022-10-18T17:29:46.095Z,41.53
2022-10-18T17:32:32.096Z,41.63
2022-10-18T17:35:18.032Z,41.95
2022-10-18T17:38:03.968Z,42.31
2022-10-18T17:40:50.066Z,42.33
2022-10-18T17:43:35.958Z,43.04
2022-10-18T17:46:21.768Z,43.45
2022-10-18T17:49:07.672Z,43.36
2022-10-18T17:51:53.491Z,43.44
2022-10-18T17:54:39.358Z,43.53
2022-10-18T17:57:25.365Z,43.73
2022-10-18T18:00:11.245Z,44.19
2022-10-18T18:02:57.131Z,44.59
2022-10-18T18:05:43.056Z,44.40
2022-10-18T18:08:28.942Z,44.85
2022-10-18T18:11:14.903Z,44.94
2022-10-18T18:14:00.630Z,44.94
2022-10-18T18:16:48.611Z,45.02
2022-10-18T18:19:34.555Z,44.91
2022-10-18T18:22:20.427Z,45.10
2022-10-18T18:25:06.371Z,44.72
2022-10-18T18:27:52.191Z,45.30
2022-10-18T18:30:37.970Z,45.29
2022-10-18T18:33:23.976Z,45.38
2022-10-18T18:36:09.639Z,45.44
2022-10-18T18:38:57.714Z,45.54
2022-10-18T18:41:43.924Z,45.45
2022-10-18T18:44:29.713Z,45.77
2022-10-18T18:47:15.560Z,46.01
2022-10-18T18:50:01.563Z,45.93
2022-10-18T18:52:47.274Z,46.15
2022-10-18T18:55:33.096Z,46.63
2022-10-18T18:58:18.911Z,46.33
2022-10-18T19:01:04.715Z,46.40
2022-10-18T19:03:50.611Z,46.14
2022-10-18T19:06:36.382Z,46.12
2022-10-18T19:09:22.217Z,46.08
2022-10-18T19:12:08.122Z,45.63
2022-10-18T19:14:53.833Z,45.47
2022-10-18T19:17:39.844Z,45.45
2022-10-18T19:20:25.593Z,45.79
2022-10-18T19:23:11.407Z,45.83
2022-10-18T19:25:57.259Z,45.98
2022-10-18T19:28:43.140Z,45.60
2022-10-18T19:31:29.017Z,45.50
2022-10-18T19:34:14.855Z,45.47
2022-10-18T19:37:00.819Z,45.58
2022-10-18T19:42:32.319Z,46.00
2022-10-18T19:45:18.241Z,45.95
2022-10-18T19:48:04.193Z,46.36
2022-10-18T19:50:50.082Z,46.60
2022-10-18T19:53:35.896Z,46.84
2022-10-18T19:56:21.876Z,46.74
2022-10-18T19:59:07.723Z,46.92
2022-10-18T20:01:53.723Z,47.07
2022-10-18T20:04:39.540Z,46.84
2022-10-18T20:07:25.373Z,46.63
2022-10-18T20:10:11.196Z,46.66
2022-10-18T20:12:56.981Z,46.86
2022-10-18T20:15:43.025Z,46.60
2022-10-18T20:18:28.734Z,46.18
2022-10-18T20:21:14.725Z,46.55
2022-10-18T20:24:00.639Z,46.71
2022-10-18T20:26:46.433Z,46.21
2022-10-18T20:29:32.314Z,46.69
2022-10-18T20:32:18.137Z,46.61
2022-10-18T20:35:03.994Z,46.28
2022-10-18T20:37:51.767Z,46.31
2022-10-18T20:40:37.668Z,46.50
2022-10-18T20:43:23.642Z,46.23
2022-10-18T20:46:09.761Z,46.64
2022-10-18T20:48:55.541Z,46.38
2022-10-18T20:51:41.597Z,46.20
2022-10-18T20:54:29.540Z,45.74
2022-10-18T20:57:17.363Z,45.60
2022-10-18T21:00:03.284Z,45.55
2022-10-18T21:02:49.207Z,45.86
2022-10-18T21:05:34.941Z,45.48
2022-10-18T21:08:20.763Z,45.66
2022-10-18T21:11:06.667Z,45.56
2022-10-18T21:13:52.601Z,45.50
2022-10-18T21:16:38.462Z,45.41
2022-10-18T21:19:24.155Z,45.32
2022-10-18T21:22:10.103Z,45.66
2022-10-18T21:24:55.861Z,45.42
2022-10-18T21:27:41.689Z,45.45
2022-10-18T21:30:27.670Z,45.27
2022-10-18T21:33:13.437Z,45.25
2022-10-18T21:35:59.463Z,45.40
2022-10-18T21:38:45.372Z,45.50
2022-10-18T21:41:31.176Z,45.27
2022-10-18T21:44:16.998Z,45.26
2022-10-18T21:47:02.777Z,45.50
2022-10-18T21:49:48.653Z,45.00
2022-10-18T21:52:34.893Z,45.14
2022-10-18T21:55:20.721Z,45.48
2022-10-18T21:58:06.666Z,45.47
2022-10-18T22:00:52.665Z,45.14
2022-10-18T22:03:38.571Z,44.44
2022-10-18T22:06:24.498Z,44.57
2022-10-18T22:09:10.323Z,44.65
2022-10-18T22:11:58.136Z,44.21
2022-10-18T22:14:44.026Z,44.93
2022-10-18T22:17:30.018Z,45.08
2022-10-18T22:20:16.361Z,45.70
2022-10-18T22:23:02.121Z,46.06
2022-10-18T22:25:47.877Z,46.02
2022-10-18T22:28:33.802Z,45.78
2022-10-18T22:31:19.693Z,45.70
2022-10-18T22:34:05.546Z,45.33
2022-10-18T22:36:51.368Z,45.09
2022-10-18T22:39:37.235Z,45.12
2022-10-18T22:42:23.323Z,44.83
2022-10-18T22:45:09.283Z,43.82
2022-10-18T22:47:57.145Z,43.09
2022-10-18T22:50:43.029Z,44.77
2022-10-18T22:53:28.855Z,44.39
2022-10-18T22:56:14.677Z,44.13
2022-10-18T22:59:00.706Z,43.74
2022-10-18T23:01:48.658Z,44.15
2022-10-18T23:04:34.351Z,43.12
2022-10-18T23:07:21.232Z,43.70
2022-10-18T23:10:06.989Z,44.11
2022-10-18T23:12:52.883Z,42.63
2022-10-18T23:15:38.707Z,43.87
2022-10-18T23:18:24.396Z,44.64
2022-10-18T23:21:10.375Z,44.48
2022-10-18T23:23:56.229Z,44.17
2022-10-18T23:26:41.988Z,43.73
2022-10-18T23:29:27.780Z,44.49
2022-10-18T23:32:13.494Z,44.89
2022-10-18T23:34:59.351Z,45.68
2022-10-18T23:37:45.210Z,46.37
2022-10-18T23:40:30.924Z,46.19
2022-10-18T23:43:16.806Z,46.35
2022-10-18T23:46:02.432Z,45.83
2022-10-18T23:48:48.113Z,46.23
2022-10-18T23:51:33.881Z,46.12
2022-10-18T23:54:19.677Z,46.69
2022-10-18T23:57:05.485Z,47.18
2022-10-18T23:59:51.223Z,46.40
